Pisco, Pisco Airport (SPSO)

NamePisco Airport
CityPisco
CountryPeru
ICAOSPSO
IATAPIO
Altitude12 m
CoordinatesGoogle Map
Live Air TrafficLiveATC.net
METARSPSO 251700Z 26009KT CAVOK 22/19 Q1014 RMK BIRD HAZARD RWY22/04 PP000
2020-04-25 17:00:00 Wind: West-Southwest (260°) 4.63 m/s - Visibility: > 10000 m - Weather: CAVOK - Temperature: 22 °C - Dew point: 19 °C - Humidity: 83.2% - Pressure: 1014 hPa

Sorry, no flights used the airport in this database.